Time;durP1;ratioP1;P1;durP2;ratioP2;P2;SDS_P1;SDS_P2;PMS_P1;PMS_P2;Temp;Humidity;BMP_temperature;BMP_pressure;BME280_temperature;BME280_humidity;BME280_pressure;Samples;Min_cycle;Max_cycle;Signal;HPM_P1;HPM_P2
2022/08/15 00:02:04;;;;;;;;;13.75;12.50;;;;;23.86;55.38;99846.78;5079256;28;45558;-78
2022/08/15 00:04:30;;;;;;;;;16.25;15.25;;;;;23.87;56.10;99849.22;5079246;27;45503;-77
2022/08/15 00:06:55;;;;;;;;;12.25;12.25;;;;;23.83;55.88;99845.34;5077981;28;46654;-77
2022/08/15 00:09:23;;;;;;;;;14.75;13.25;;;;;23.82;56.21;99838.34;5081064;27;46416;-78
2022/08/15 00:11:52;;;;;;;;;12.25;12.00;;;;;23.79;55.49;99842.28;5081252;27;45604;-76
2022/08/15 00:14:23;;;;;;;;;13.00;12.75;;;;;23.79;55.72;99838.78;5081657;27;45764;-77
2022/08/15 00:16:49;;;;;;;;;13.50;13.25;;;;;23.77;55.92;99839.00;5081214;27;45637;-79
2022/08/15 00:19:25;;;;;;;;;17.75;16.50;;;;;23.74;56.32;99839.44;5081655;27;46415;-76
2022/08/15 00:21:54;;;;;;;;;17.00;15.50;;;;;23.71;56.58;99837.16;5081337;28;45629;-80
2022/08/15 00:24:25;;;;;;;;;19.75;17.50;;;;;23.68;56.32;99834.09;5081072;27;45503;-75
2022/08/15 00:26:52;;;;;;;;;14.00;14.00;;;;;23.62;56.29;99830.41;5080481;28;46542;-80
2022/08/15 00:29:20;;;;;;;;;15.50;15.00;;;;;23.56;56.41;99836.63;5080670;28;46399;-80
2022/08/15 00:31:46;;;;;;;;;18.50;15.75;;;;;23.53;56.29;99830.88;5080393;28;45556;-75
2022/08/15 00:34:15;;;;;;;;;14.00;14.00;;;;;23.50;56.71;99828.59;5080096;27;45866;-81
2022/08/15 00:36:41;;;;;;;;;16.25;15.75;;;;;23.43;56.17;99825.91;5081066;27;45568;-81
2022/08/15 00:39:07;;;;;;;;;14.75;14.25;;;;;23.39;56.35;99822.84;5080446;27;46425;-81
2022/08/15 00:41:39;;;;;;;;;16.75;15.75;;;;;23.33;56.57;99825.56;5079161;27;45579;-82
2022/08/15 00:44:16;;;;;;;;;16.25;14.75;;;;;23.25;56.62;99820.44;5074333;27;45661;-81
2022/08/15 00:46:55;;;;;;;;;19.25;17.00;;;;;23.17;56.56;99820.66;5074173;27;46254;-81
2022/08/15 00:49:23;;;;;;;;;17.50;16.75;;;;;23.05;56.87;99823.16;5073653;27;45938;-80
2022/08/15 00:51:54;;;;;;;;;17.50;16.50;;;;;22.97;56.49;99828.72;5073626;27;46021;-79
2022/08/15 00:54:28;;;;;;;;;17.00;15.50;;;;;22.89;56.75;99823.59;5073754;27;45444;-80
2022/08/15 00:56:59;;;;;;;;;16.75;15.50;;;;;22.82;57.41;99822.81;5073809;27;46776;-78
2022/08/15 00:59:29;;;;;;;;;17.00;16.00;;;;;22.77;56.97;99820.75;5073797;27;45795;-79
2022/08/15 01:01:57;;;;;;;;;16.50;16.50;;;;;22.73;57.48;99818.69;5072168;28;45854;-80
2022/08/15 01:04:23;;;;;;;;;16.75;16.50;;;;;22.66;57.42;99817.84;5073486;28;45681;-79
2022/08/15 01:06:48;;;;;;;;;19.50;16.00;;;;;22.62;57.65;99816.63;5075465;28;47419;-81
2022/08/15 01:09:16;;;;;;;;;16.50;16.00;;;;;22.60;57.63;99819.50;5078124;27;45763;-73
2022/08/15 01:12:13;;;;;;;;;18.25;16.25;;;;;22.56;57.73;99818.28;5076717;27;45699;-80
2022/08/15 01:14:43;;;;;;;;;15.50;15.50;;;;;22.53;57.63;99814.16;5098246;27;45566;-79
2022/08/15 01:17:09;;;;;;;;;18.25;17.00;;;;;22.51;58.25;99813.53;5083027;27;46968;-80
2022/08/15 01:19:44;;;;;;;;;15.50;14.50;;;;;22.50;58.29;99811.91;5082942;28;45971;-81
2022/08/15 01:23:11;;;;;;;;;20.75;19.25;;;;;22.48;58.15;99815.78;5083488;27;45712;-80
2022/08/15 01:25:38;;;;;;;;;22.25;20.25;;;;;22.43;57.78;99816.41;5074024;28;45688;-80
2022/08/15 01:28:26;;;;;;;;;17.75;17.50;;;;;22.39;57.96;99819.69;5074295;28;46947;-75
2022/08/15 01:30:55;;;;;;;;;18.75;17.00;;;;;22.37;58.43;99824.41;5073455;28;46007;-78
2022/08/15 01:33:22;;;;;;;;;19.25;16.25;;;;;22.35;58.42;99821.16;5074359;28;45690;-77
2022/08/15 01:35:51;;;;;;;;;17.75;15.50;;;;;22.32;58.43;99814.34;5074399;28;45792;-81
2022/08/15 01:38:33;;;;;;;;;16.50;16.00;;;;;22.29;58.46;99811.28;5074024;28;45597;-81
2022/08/15 01:41:26;;;;;;;;;22.00;18.75;;;;;22.26;58.49;99817.00;5073709;28;46458;-81
2022/08/15 01:44:06;;;;;;;;;19.00;18.00;;;;;22.27;58.30;99819.50;5073898;28;45723;-80
2022/08/15 01:46:38;;;;;;;;;19.50;17.50;;;;;22.28;58.61;99815.78;5074142;28;45649;-78
2022/08/15 01:49:11;;;;;;;;;19.00;17.00;;;;;22.27;58.19;99810.66;5073490;28;46730;-79
2022/08/15 01:51:36;;;;;;;;;15.50;14.25;;;;;22.29;58.55;99813.94;5073607;28;47047;-80
2022/08/15 01:54:07;;;;;;;;;19.25;17.25;;;;;22.30;58.79;99811.06;5074025;28;45756;-76
2022/08/15 01:56:42;;;;;;;;;21.00;19.50;;;;;22.31;58.12;99811.88;5073749;27;45723;-80
2022/08/15 01:59:14;;;;;;;;;19.50;17.25;;;;;22.33;58.43;99807.19;5074670;28;46368;-77
2022/08/15 02:01:45;;;;;;;;;17.50;17.25;;;;;22.31;58.58;99810.03;5075851;27;45541;-78
2022/08/15 02:04:13;;;;;;;;;21.50;20.00;;;;;22.31;58.68;99810.03;5076022;28;45657;-79
2022/08/15 02:06:40;;;;;;;;;17.25;16.00;;;;;22.32;58.64;99810.88;5075989;27;45560;-80
2022/08/15 02:09:08;;;;;;;;;17.50;17.00;;;;;22.31;58.36;99804.69;5075922;27;46810;-79
2022/08/15 02:11:33;;;;;;;;;17.75;17.75;;;;;22.30;58.33;99805.72;5075720;27;46016;-78
2022/08/15 02:13:59;;;;;;;;;19.50;18.00;;;;;22.31;58.41;99804.69;5075976;28;45907;-80
2022/08/15 02:16:35;;;;;;;;;21.75;19.25;;;;;22.33;58.64;99807.19;5074442;28;45981;-78
2022/08/15 02:19:05;;;;;;;;;18.25;17.50;;;;;22.34;58.39;99808.81;5075844;27;46629;-80
2022/08/15 02:21:31;;;;;;;;;19.25;19.25;;;;;22.36;58.34;99804.09;5075470;27;46382;-79
2022/08/15 02:23:58;;;;;;;;;19.50;19.00;;;;;22.36;58.91;99801.41;5075725;28;45709;-80
2022/08/15 02:26:23;;;;;;;;;17.00;16.00;;;;;22.33;58.50;99794.66;5076297;28;45867;-80
2022/08/15 02:28:50;;;;;;;;;20.50;19.25;;;;;22.31;58.45;99796.69;5075129;27;47269;-80
2022/08/15 02:31:20;;;;;;;;;19.25;18.25;;;;;22.28;58.29;99788.28;5074938;27;46496;-80
2022/08/15 02:33:57;;;;;;;;;22.25;17.75;;;;;22.27;58.34;99784.78;5075392;27;45648;-79
2022/08/15 02:36:23;;;;;;;;;18.25;16.75;;;;;22.27;58.68;99787.47;5075661;28;45558;-80
2022/08/15 02:38:50;;;;;;;;;19.50;17.75;;;;;22.29;58.50;99784.59;5075322;27;45685;-81
2022/08/15 02:41:20;;;;;;;;;17.00;17.00;;;;;22.29;57.96;99782.75;5075292;27;46014;-78
2022/08/15 02:43:46;;;;;;;;;20.50;18.00;;;;;22.30;58.36;99781.69;5075350;28;45696;-74
2022/08/15 02:46:16;;;;;;;;;18.75;17.00;;;;;22.32;58.30;99785.00;5075404;28;45622;-81
2022/08/15 02:48:43;;;;;;;;;18.75;18.00;;;;;22.31;57.75;99778.00;5075401;27;45642;-81
2022/08/15 02:51:10;;;;;;;;;17.00;16.00;;;;;22.30;58.02;99770.19;5075088;27;45605;-79
2022/08/15 02:53:36;;;;;;;;;18.00;17.00;;;;;22.34;57.74;99774.94;5075184;27;45605;-79
2022/08/15 02:56:03;;;;;;;;;18.75;18.25;;;;;22.36;57.57;99775.53;5075465;27;45614;-79
2022/08/15 02:58:28;;;;;;;;;18.25;17.25;;;;;22.36;58.32;99770.19;5075109;27;45668;-80
2022/08/15 03:00:54;;;;;;;;;16.50;15.50;;;;;22.37;58.51;99779.03;5073309;28;46567;-79
2022/08/15 03:03:19;;;;;;;;;19.25;19.25;;;;;22.38;58.01;99778.00;5073377;28;45648;-79
2022/08/15 03:05:48;;;;;;;;;23.50;19.75;;;;;22.38;58.09;99778.00;5075239;27;45815;-74
2022/08/15 03:08:14;;;;;;;;;20.00;19.75;;;;;22.36;57.96;99777.38;5075266;27;46648;-77
2022/08/15 03:10:41;;;;;;;;;22.25;20.25;;;;;22.37;58.29;99769.19;5075072;27;45974;-78
2022/08/15 03:13:13;;;;;;;;;21.50;19.25;;;;;22.38;58.43;99772.69;5074836;27;45816;-77
2022/08/15 03:15:43;;;;;;;;;19.75;19.75;;;;;22.37;58.32;99766.50;5074952;27;45814;-78
2022/08/15 03:18:09;;;;;;;;;20.00;19.75;;;;;22.37;58.35;99771.03;5074871;27;45891;-76
2022/08/15 03:20:36;;;;;;;;;17.25;16.50;;;;;22.39;58.08;99769.00;5074343;27;46282;-78
2022/08/15 03:23:04;;;;;;;;;23.00;22.25;;;;;22.39;58.59;99769.00;5074818;28;45955;-79
2022/08/15 03:25:30;;;;;;;;;20.50;20.25;;;;;22.37;58.39;99766.50;5074974;27;45556;-80
2022/08/15 03:27:56;;;;;;;;;21.75;21.75;;;;;22.41;58.79;99766.91;5074117;27;45546;-81
2022/08/15 03:30:22;;;;;;;;;20.25;18.25;;;;;22.39;58.45;99769.00;5074855;28;46300;-80
2022/08/15 03:32:53;;;;;;;;;23.50;20.75;;;;;22.38;59.26;99762.81;5074582;28;45541;-80
2022/08/15 03:35:22;;;;;;;;;22.75;19.25;;;;;22.36;58.64;99761.38;5074949;27;45589;-80
2022/08/15 03:37:48;;;;;;;;;21.25;19.25;;;;;22.33;59.27;99757.28;5074450;27;45916;-80
2022/08/15 03:40:14;;;;;;;;;22.25;19.00;;;;;22.36;59.13;99756.03;5074366;27;46372;-80
2022/08/15 03:42:54;;;;;;;;;22.25;20.00;;;;;22.34;59.17;99761.59;5074377;27;45848;-80
2022/08/15 03:45:20;;;;;;;;;21.75;20.00;;;;;22.33;58.98;99754.63;5074513;28;45601;-75
2022/08/15 03:47:45;;;;;;;;;20.25;19.00;;;;;22.34;58.96;99756.25;5074350;27;45801;-77
2022/08/15 03:50:12;;;;;;;;;20.75;19.25;;;;;22.35;58.61;99757.88;5074145;27;46083;-80
2022/08/15 03:53:00;;;;;;;;;20.25;19.50;;;;;22.34;58.87;99755.44;5074264;28;45710;-80
2022/08/15 03:55:28;;;;;;;;;17.75;17.50;;;;;22.33;58.54;99754.63;5074269;27;45634;-81
2022/08/15 03:57:54;;;;;;;;;18.75;18.75;;;;;22.32;58.87;99750.28;5074318;27;45719;-79
2022/08/15 04:00:24;;;;;;;;;19.00;17.75;;;;;22.32;58.58;99747.63;5074149;27;46458;-80
2022/08/15 04:02:49;;;;;;;;;19.25;18.25;;;;;22.32;58.89;99746.81;5073900;27;45884;-78
2022/08/15 04:05:15;;;;;;;;;17.00;16.75;;;;;22.33;58.48;99753.78;5074228;27;45836;-79
2022/08/15 04:07:41;;;;;;;;;18.50;18.50;;;;;22.33;58.18;99743.13;5073999;27;46504;-80
2022/08/15 04:10:10;;;;;;;;;18.75;18.25;;;;;22.34;58.25;99742.91;5073854;27;45640;-79
2022/08/15 04:12:39;;;;;;;;;19.75;18.75;;;;;22.34;58.72;99737.56;5074009;27;45714;-80
2022/08/15 04:15:10;;;;;;;;;19.75;19.50;;;;;22.34;58.17;99734.91;5074065;27;45597;-76
2022/08/15 04:17:35;;;;;;;;;17.75;16.00;;;;;22.33;58.02;99735.94;5073989;27;46878;-79
2022/08/15 04:20:01;;;;;;;;;21.00;18.25;;;;;22.35;58.93;99736.53;5072156;28;46459;-78
2022/08/15 04:22:38;;;;;;;;;20.50;18.50;;;;;22.30;58.49;99738.16;5074039;27;45612;-80
2022/08/15 04:25:34;;;;;;;;;21.00;21.00;;;;;22.30;58.73;99735.50;5072213;28;45840;-78
2022/08/15 04:28:02;;;;;;;;;21.00;19.25;;;;;22.26;58.11;99737.78;5071240;28;46489;-78
2022/08/15 04:30:33;;;;;;;;;17.25;15.25;;;;;22.26;58.41;99743.09;5071371;28;45683;-79
2022/08/15 04:33:27;;;;;;;;;21.00;20.00;;;;;22.24;58.51;99736.34;5071497;28;45704;-80
2022/08/15 04:36:10;;;;;;;;;17.00;16.50;;;;;22.22;58.20;99741.06;5068988;28;46017;-80
2022/08/15 04:38:37;;;;;;;;;19.00;17.75;;;;;22.21;58.53;99739.41;5071055;28;46674;-79
2022/08/15 04:41:04;;;;;;;;;18.00;15.75;;;;;22.18;57.89;99735.31;5072827;28;46207;-76
2022/08/15 04:43:31;;;;;;;;;16.00;15.25;;;;;22.17;57.92;99741.69;5074858;28;45740;-78
2022/08/15 04:45:58;;;;;;;;;17.00;17.00;;;;;22.16;58.55;99738.19;5074755;28;45730;-75
2022/08/15 04:48:25;;;;;;;;;19.00;16.25;;;;;22.16;58.35;99737.38;5057416;28;48769;-79
2022/08/15 04:50:53;;;;;;;;;19.75;18.75;;;;;22.14;58.26;99742.91;5074695;28;46203;-80
2022/08/15 04:53:21;;;;;;;;;19.25;17.00;;;;;22.13;58.68;99727.91;5074817;28;45931;-79
2022/08/15 04:55:48;;;;;;;;;19.00;18.75;;;;;22.12;58.14;99725.47;5074689;28;45657;-77
2022/08/15 04:58:15;;;;;;;;;17.50;16.00;;;;;22.12;58.52;99725.47;5074420;28;46500;-79
2022/08/15 05:00:54;;;;;;;;;18.50;18.25;;;;;22.12;57.94;99720.94;5073926;28;46462;-77
2022/08/15 05:03:20;;;;;;;;;20.00;18.25;;;;;22.11;58.24;99724.63;5074846;28;45984;-79
2022/08/15 05:05:57;;;;;;;;;17.50;15.25;;;;;22.14;58.40;99724.22;5076867;27;45583;-80
2022/08/15 05:08:25;;;;;;;;;16.75;15.25;;;;;22.13;58.30;99719.09;5076456;27;45806;-80
2022/08/15 05:10:57;;;;;;;;;19.75;18.00;;;;;22.14;58.04;99712.72;5076335;27;48499;-79
2022/08/15 05:13:27;;;;;;;;;17.00;15.50;;;;;22.14;58.13;99707.38;5076737;27;45564;-78
2022/08/15 05:15:54;;;;;;;;;20.75;19.75;;;;;22.13;58.29;99706.56;5076585;27;45640;-80
2022/08/15 05:18:21;;;;;;;;;19.75;18.00;;;;;22.13;58.17;99706.56;5076830;27;45836;-80
2022/08/15 05:20:46;;;;;;;;;19.75;16.75;;;;;22.13;58.13;99708.44;5076201;27;46169;-80
2022/08/15 05:23:15;;;;;;;;;16.25;15.50;;;;;22.16;58.03;99711.50;5074974;28;46690;-81
2022/08/15 05:25:44;;;;;;;;;19.25;18.25;;;;;22.14;58.07;99708.22;5075108;28;45933;-79
2022/08/15 05:28:11;;;;;;;;;16.50;15.75;;;;;22.17;58.26;99715.00;5076616;27;45588;-79
2022/08/15 05:30:37;;;;;;;;;20.50;19.00;;;;;22.17;58.19;99718.50;5077394;27;46218;-79
2022/08/15 05:33:14;;;;;;;;;19.25;17.75;;;;;;;;5077554;27;45703;-80
2022/08/15 05:35:42;;;;;;;;;17.50;16.25;;;;;22.20;57.88;99711.91;5076730;27;45559;-81
2022/08/15 05:38:14;;;;;;;;;21.25;19.25;;;;;22.18;58.27;99709.47;5074645;28;48581;-81
2022/08/15 05:40:53;;;;;;;;;20.00;19.00;;;;;22.19;58.40;99704.91;5075985;27;47196;-80
2022/08/15 05:43:24;;;;;;;;;19.50;17.25;;;;;;;;5076281;27;45906;-81
2022/08/15 05:46:11;;;;;;;;;19.75;16.75;;;;;22.18;58.11;99712.13;5076291;27;45633;-80
2022/08/15 05:48:38;;;;;;;;;17.00;16.75;;;;;;;;5076248;27;45607;-76
2022/08/15 05:51:15;;;;;;;;;18.00;17.00;;;;;22.17;58.18;99710.47;5075801;27;46105;-79
2022/08/15 05:54:10;;;;;;;;;17.00;17.00;;;;;22.17;57.87;99717.66;5076268;27;45704;-81
2022/08/15 05:57:09;;;;;;;;;21.25;17.25;;;;;22.17;58.15;99717.66;5076423;28;45700;-80
2022/08/15 05:59:40;;;;;;;;;16.50;14.75;;;;;22.16;57.71;99716.84;5075885;28;46859;-76
2022/08/15 06:02:13;;;;;;;;;18.75;17.75;;;;;22.17;58.13;99720.34;5075869;27;46050;-80
2022/08/15 06:05:17;;;;;;;;;19.00;17.25;;;;;22.17;57.67;99721.16;5076011;27;45890;-81
2022/08/15 06:07:49;;;;;;;;;15.00;14.00;;;;;22.17;57.63;99723.81;5073974;28;45826;-78
2022/08/15 06:10:27;;;;;;;;;17.25;15.50;;;;;22.15;57.51;99719.72;5073389;28;46502;-74
2022/08/15 06:13:04;;;;;;;;;12.50;12.25;;;;;22.15;57.44;99725.88;5074184;28;46029;-79
2022/08/15 06:15:46;;;;;;;;;17.25;15.75;;;;;22.17;57.20;99725.66;5073890;28;45778;-78
2022/08/15 06:18:14;;;;;;;;;14.50;13.00;;;;;22.18;57.06;99722.81;5074065;28;45589;-79
2022/08/15 06:20:52;;;;;;;;;15.75;15.25;;;;;22.19;56.87;99723.59;5073659;28;45815;-81
2022/08/15 06:23:49;;;;;;;;;12.75;12.00;;;;;22.19;57.00;99718.25;5056484;28;46713;-79
2022/08/15 06:26:28;;;;;;;;;12.00;11.25;;;;;22.21;56.57;99716.22;4993154;28;45685;-72
2022/08/15 06:32:27;;;;;;;;;11.25;11.25;;;;;22.21;57.20;99718.88;4992978;28;46121;-79
2022/08/15 06:35:02;;;;;;;;;13.00;13.00;;;;;;;;4992839;28;45785;-82
2022/08/15 06:37:42;;;;;;;;;12.50;12.50;;;;;22.19;57.13;99718.25;4993345;28;45961;-78
2022/08/15 06:40:16;;;;;;;;;14.50;14.00;;;;;22.18;56.68;99716.66;4992778;28;45769;-80
2022/08/15 06:42:44;;;;;;;;;11.25;11.00;;;;;22.18;57.11;99716.66;4995953;28;47704;-80
2022/08/15 06:48:37;;;;;;;;;17.25;14.50;;;;;22.21;57.04;99720.72;5012497;28;45802;-78
2022/08/15 06:51:05;;;;;;;;;17.50;15.25;;;;;22.22;56.66;99711.69;5012990;28;45918;-79
2022/08/15 06:53:44;;;;;;;;;15.00;13.75;;;;;22.26;56.95;99715.59;5012628;28;46419;-79
2022/08/15 06:56:28;;;;;;;;;18.00;16.25;;;;;22.29;56.81;99717.88;5013238;28;46197;-81
2022/08/15 06:58:59;;;;;;;;;16.25;15.50;;;;;22.31;56.72;99713.94;5012279;28;46019;-81
2022/08/15 07:02:03;;;;;;;;;18.00;16.25;;;;;22.32;56.65;99712.94;5030968;28;45936;-76
2022/08/15 07:04:54;;;;;;;;;17.00;15.75;;;;;22.34;56.99;99716.22;5072638;27;46417;-79
2022/08/15 07:07:36;;;;;;;;;20.50;17.75;;;;;22.34;57.68;99710.88;5075128;27;46589;-76
2022/08/15 07:10:16;;;;;;;;;16.75;16.00;;;;;22.36;56.97;99710.66;5074883;27;45591;-73
2022/08/15 07:13:00;;;;;;;;;16.50;16.00;;;;;22.39;57.38;99710.25;5075161;27;45691;-74
2022/08/15 07:15:39;;;;;;;;;15.75;14.50;;;;;22.37;57.78;99713.13;5074177;27;45829;-73
2022/08/15 07:18:14;;;;;;;;;17.00;15.75;;;;;22.38;57.66;99713.94;5074886;27;46741;-73
2022/08/15 07:20:40;;;;;;;;;13.50;13.00;;;;;22.37;57.55;99720.31;5074930;27;45705;-73
2022/08/15 07:23:18;;;;;;;;;17.00;16.00;;;;;22.36;57.65;99718.66;5074769;27;45549;-74
2022/08/15 07:25:49;;;;;;;;;14.25;14.25;;;;;22.37;58.01;99726.47;5074586;27;46524;-73
2022/08/15 07:28:18;;;;;;;;;14.75;14.00;;;;;22.36;57.43;99727.50;5074700;27;46020;-73
2022/08/15 07:31:09;;;;;;;;;13.25;13.25;;;;;22.40;57.41;99733.25;5073906;27;45515;-73
2022/08/15 07:33:43;;;;;;;;;16.75;16.25;;;;;22.41;57.39;99734.88;5074683;28;46095;-73
2022/08/15 07:36:28;;;;;;;;;14.00;12.75;;;;;22.44;57.59;99739.81;5074300;27;45931;-74
2022/08/15 07:38:55;;;;;;;;;15.25;13.75;;;;;22.43;57.59;99727.50;5074224;27;48103;-73
2022/08/15 07:41:27;;;;;;;;;14.00;13.00;;;;;22.48;57.31;99733.03;5074466;28;45784;-74
2022/08/15 07:47:21;;;;;;;;;13.00;13.00;;;;;22.53;56.80;99715.38;5074212;28;45620;-75
2022/08/15 07:49:59;;;;;;;;;15.50;14.25;;;;;22.57;56.97;99721.91;5072555;28;47004;-73
2022/08/15 07:52:25;;;;;;;;;12.75;12.00;;;;;22.61;56.99;99714.34;5074454;27;45797;-74
2022/08/15 07:54:55;;;;;;;;;15.25;14.25;;;;;22.65;57.15;99720.06;5074201;27;45889;-74
2022/08/15 07:57:30;;;;;;;;;12.50;11.25;;;;;22.67;56.54;99724.19;5074154;27;45640;-75
2022/08/15 08:03:29;;;;;;;;;9.25;9.00;;;;;22.75;55.88;99723.97;5073907;28;45817;-80
2022/08/15 08:06:13;;;;;;;;;11.00;10.50;;;;;22.82;56.66;99723.97;5074494;28;45740;-82
2022/08/15 08:08:52;;;;;;;;;11.00;11.00;;;;;22.89;56.31;99722.91;5073958;28;45749;-79
2022/08/15 08:11:27;;;;;;;;;10.75;10.75;;;;;22.94;55.95;99724.97;5074402;27;45961;-80
2022/08/15 08:14:14;;;;;;;;;11.50;11.00;;;;;22.94;56.22;99712.41;5073826;27;45632;-81
2022/08/15 08:17:01;;;;;;;;;12.00;10.75;;;;;22.98;56.13;99707.47;5073938;28;45750;-79
2022/08/15 08:20:03;;;;;;;;;10.50;10.50;;;;;22.99;55.84;99719.81;5089381;27;48264;-80
2022/08/15 08:23:01;;;;;;;;;13.00;10.00;;;;;23.03;55.35;99726.38;5071710;28;46067;-80
2022/08/15 08:25:35;;;;;;;;;12.75;11.00;;;;;23.08;55.55;99723.06;4991489;28;45756;-80
2022/08/15 08:28:07;;;;;;;;;10.00;10.00;;;;;23.15;55.16;99730.03;4991931;28;45941;-79
2022/08/15 08:30:47;;;;;;;;;10.75;9.00;;;;;23.23;55.28;99729.78;4991398;28;46876;-78
2022/08/15 08:33:37;;;;;;;;;8.00;8.00;;;;;23.27;55.46;99733.66;4991499;28;46002;-80
2022/08/15 08:36:18;;;;;;;;;9.25;9.00;;;;;23.35;54.64;99724.56;4991562;28;45807;-80
2022/08/15 08:38:52;;;;;;;;;11.25;10.25;;;;;23.40;55.14;99728.25;4991451;28;45917;-79
2022/08/15 08:41:34;;;;;;;;;12.00;10.00;;;;;23.45;55.32;99727.59;4974512;28;47012;-79
2022/08/15 08:44:29;;;;;;;;;11.00;10.00;;;;;23.53;55.33;99723.91;4990988;28;46002;-78
2022/08/15 08:47:16;;;;;;;;;11.50;8.00;;;;;23.59;55.23;99725.72;4991309;28;45663;-78
2022/08/15 08:49:47;;;;;;;;;11.00;10.25;;;;;23.61;55.13;99710.25;4991330;28;45679;-78
2022/08/15 08:52:24;;;;;;;;;11.00;10.00;;;;;23.62;55.13;99715.41;4991158;28;45728;-81
2022/08/15 08:55:07;;;;;;;;;8.50;8.00;;;;;23.63;54.63;99717.06;4990818;28;47022;-79
2022/08/15 08:57:49;;;;;;;;;8.00;7.75;;;;;23.64;54.61;99716.03;4991364;28;45936;-81
2022/08/15 09:00:20;;;;;;;;;8.25;7.25;;;;;23.64;54.19;99710.69;5010721;28;45759;-79
2022/08/15 09:03:27;;;;;;;;;7.00;7.00;;;;;23.69;54.68;99721.53;5052730;28;46551;-80
2022/08/15 09:05:58;;;;;;;;;8.25;7.00;;;;;23.77;53.77;99721.28;5073573;28;45939;-81
2022/08/15 09:08:38;;;;;;;;;10.50;9.50;;;;;23.88;53.83;99733.13;5073480;27;45716;-80
2022/08/15 09:11:12;;;;;;;;;9.00;8.75;;;;;23.97;54.07;99741.72;5074225;27;45843;-82
2022/08/15 09:13:43;;;;;;;;;7.50;6.00;;;;;24.02;53.90;99728.53;5073296;27;46760;-79
2022/08/15 09:16:18;;;;;;;;;9.50;9.50;;;;;24.08;54.27;99732.97;5068300;27;46434;-82
2022/08/15 09:19:02;;;;;;;;;9.00;9.00;;;;;24.13;53.72;99733.16;5073502;28;46076;-76
2022/08/15 09:21:27;;;;;;;;;8.00;7.00;;;;;24.17;54.04;99729.00;5073692;28;45578;-81
2022/08/15 09:23:54;;;;;;;;;9.25;9.00;;;;;24.19;53.66;99722.41;5074094;27;46482;-81
2022/08/15 09:26:37;;;;;;;;;8.25;7.00;;;;;24.21;53.63;99717.66;5074825;27;46474;-78
2022/08/15 09:32:28;;;;;;;;;6.00;6.00;;;;;24.29;54.07;99726.47;5079728;28;45574;-80
2022/08/15 09:35:25;;;;;;;;;6.00;6.00;;;;;24.33;53.88;99725.00;5082586;27;45698;-76
2022/08/15 09:38:17;;;;;;;;;4.25;4.00;;;;;24.39;53.96;99724.13;5082994;27;46383;-79
2022/08/15 09:41:20;;;;;;;;;6.00;5.00;;;;;24.46;53.74;99733.72;5082880;27;45648;-81
2022/08/15 09:44:00;;;;;;;;;4.00;4.00;;;;;24.52;53.60;99734.69;5079964;28;45569;-76
2022/08/15 09:50:00;;;;;;;;;3.00;3.00;;;;;24.70;52.95;99736.56;5079848;28;45724;-76
2022/08/15 09:52:35;;;;;;;;;5.00;3.00;;;;;24.79;53.20;99741.41;5081328;28;45613;-78
2022/08/15 09:55:15;;;;;;;;;3.50;3.50;;;;;24.87;53.06;99725.06;5082588;27;45403;-79
2022/08/15 09:57:48;;;;;;;;;3.00;3.00;;;;;24.99;53.08;99738.56;5082205;27;46640;-81
2022/08/15 10:00:15;;;;;;;;;3.00;2.75;;;;;25.07;52.67;99730.22;5081952;27;46161;-78
2022/08/15 10:02:43;;;;;;;;;2.00;2.00;;;;;25.15;52.65;99739.81;5081825;27;45617;-81
2022/08/15 10:05:11;;;;;;;;;3.75;3.75;;;;;25.21;52.41;99736.25;5082345;27;45564;-80
2022/08/15 10:07:51;;;;;;;;;4.00;3.75;;;;;25.24;52.35;99731.25;5082522;28;46968;-79
2022/08/15 10:10:18;;;;;;;;;4.00;4.00;;;;;25.31;52.19;99737.34;5098064;27;46839;-80
2022/08/15 10:13:21;;;;;;;;;4.00;4.00;;;;;25.36;52.13;99740.16;5082820;27;45586;-80
2022/08/15 10:15:47;;;;;;;;;3.00;3.00;;;;;25.40;51.85;99737.84;5082180;28;45660;-81
2022/08/15 10:18:25;;;;;;;;;4.00;4.00;;;;;25.43;51.43;99738.19;5082531;28;45997;-82
2022/08/15 10:21:18;;;;;;;;;3.50;3.00;;;;;25.48;51.75;99745.56;5082189;27;45495;-80
2022/08/15 10:23:47;;;;;;;;;3.00;3.00;;;;;25.49;51.92;99737.28;5082312;28;45628;-80
2022/08/15 10:26:20;;;;;;;;;5.00;5.00;;;;;25.53;50.97;99743.03;5082792;27;45470;-81
2022/08/15 10:29:11;;;;;;;;;4.25;4.25;;;;;25.55;51.38;99743.63;5080708;27;45501;-78
2022/08/15 10:31:56;;;;;;;;;5.00;5.00;;;;;25.55;51.28;99740.94;5080188;28;46306;-76
2022/08/15 10:34:32;;;;;;;;;4.00;4.00;;;;;25.57;51.55;99749.63;5079605;27;45632;-81
2022/08/15 10:37:29;;;;;;;;;5.00;5.00;;;;;25.57;51.48;99748.78;5080651;28;45616;-79
2022/08/15 10:40:21;;;;;;;;;6.50;6.00;;;;;25.59;51.51;99742.13;5079305;27;47630;-81
2022/08/15 10:43:11;;;;;;;;;5.50;5.00;;;;;25.62;51.42;99746.25;5080063;28;47075;-81
2022/08/15 10:49:09;;;;;;;;;6.50;6.50;;;;;25.66;51.30;99748.25;5077278;28;45520;-80
2022/08/15 10:51:53;;;;;;;;;6.75;6.00;;;;;25.66;51.79;99742.88;5077113;27;45763;-82
2022/08/15 10:54:24;;;;;;;;;6.25;6.25;;;;;25.66;51.88;99742.06;5077005;27;46513;-75
2022/08/15 10:56:54;;;;;;;;;5.00;5.00;;;;;25.66;51.60;99750.09;5076148;27;45704;-81
2022/08/15 10:59:24;;;;;;;;;6.00;5.00;;;;;25.61;51.53;99745.44;5091308;27;45599;-80
2022/08/15 11:05:16;;;;;;;;;4.75;3.75;;;;;25.58;52.43;99748.56;5074831;28;45491;-78
2022/08/15 11:07:49;;;;;;;;;4.00;4.00;;;;;25.55;52.92;99738.25;5075317;27;45677;-80
2022/08/15 11:10:18;;;;;;;;;5.00;4.50;;;;;25.52;53.29;99737.91;5075711;27;45791;-73
2022/08/15 11:12:48;;;;;;;;;6.00;6.00;;;;;25.44;53.22;99739.03;5079801;27;46762;-78
2022/08/15 11:15:19;;;;;;;;;5.25;4.75;;;;;25.36;53.18;99734.81;5080945;28;45995;-82
2022/08/15 11:17:50;;;;;;;;;4.50;4.50;;;;;25.30;53.39;99735.72;5080550;27;45767;-78
2022/08/15 11:20:21;;;;;;;;;6.50;6.50;;;;;25.23;53.57;99739.50;5080308;28;45629;-79
2022/08/15 11:22:56;;;;;;;;;5.25;5.25;;;;;25.19;53.65;99741.81;5078171;28;47325;-77
2022/08/15 11:25:27;;;;;;;;;6.75;6.00;;;;;25.16;53.50;99747.63;5077601;27;46278;-80
2022/08/15 11:28:04;;;;;;;;;5.25;5.00;;;;;25.14;53.70;99751.59;5074996;27;45770;-78
2022/08/15 11:30:34;;;;;;;;;7.00;7.00;;;;;25.11;53.75;99749.34;5090336;27;45658;-81
2022/08/15 11:33:22;;;;;;;;;6.75;6.75;;;;;25.14;54.01;99746.22;5074393;27;47274;-80
2022/08/15 11:36:01;;;;;;;;;6.00;6.00;;;;;25.12;53.75;99742.94;5074467;27;47031;-81
2022/08/15 11:38:30;;;;;;;;;7.75;6.25;;;;;25.14;53.93;99748.91;5074459;27;45677;-81
2022/08/15 11:40:56;;;;;;;;;6.00;6.00;;;;;25.17;53.22;99751.13;5074651;27;45558;-80
2022/08/15 11:43:22;;;;;;;;;6.00;5.50;;;;;25.20;53.25;99753.38;5074084;27;45854;-81
2022/08/15 11:45:50;;;;;;;;;6.00;5.75;;;;;25.18;52.75;99750.09;5074366;27;46399;-79
2022/08/15 11:48:22;;;;;;;;;5.50;5.25;;;;;25.21;52.83;99750.44;5074274;28;45688;-81
2022/08/15 11:51:02;;;;;;;;;6.75;6.00;;;;;25.23;52.32;99748.38;5074107;27;45588;-82
2022/08/15 11:53:31;;;;;;;;;6.00;5.00;;;;;25.26;52.53;99753.31;5074177;27;46668;-81
2022/08/15 11:55:56;;;;;;;;;6.50;6.50;;;;;25.32;52.86;99749.69;5074917;27;46528;-81
2022/08/15 11:58:37;;;;;;;;;6.25;6.00;;;;;25.35;52.57;99751.13;5074086;27;45616;-78
2022/08/15 12:01:22;;;;;;;;;5.00;5.00;;;;;25.45;52.87;99743.34;5074442;27;45671;-81
2022/08/15 12:04:00;;;;;;;;;7.00;7.00;;;;;25.53;52.61;99752.97;5074194;27;46622;-79
2022/08/15 12:06:30;;;;;;;;;6.50;5.75;;;;;25.56;52.35;99760.56;5072897;28;47453;-79
2022/08/15 12:09:09;;;;;;;;;6.00;6.00;;;;;25.57;52.15;99756.84;5074229;27;45495;-81
2022/08/15 12:11:41;;;;;;;;;7.00;7.00;;;;;25.62;51.97;99754.31;5074106;27;46088;-84
2022/08/15 12:14:15;;;;;;;;;6.00;5.75;;;;;25.67;51.73;99755.25;5074054;27;45616;-81
2022/08/15 12:16:47;;;;;;;;;6.75;6.50;;;;;25.73;51.86;99750.84;5068755;27;46266;-80
2022/08/15 12:19:35;;;;;;;;;5.00;5.00;;;;;25.82;51.42;99760.19;5074017;28;45794;-80
2022/08/15 12:22:13;;;;;;;;;6.00;5.50;;;;;25.90;51.77;99754.50;5074147;27;45549;-79
2022/08/15 12:24:42;;;;;;;;;5.75;5.00;;;;;25.97;50.86;99752.53;5073778;27;46613;-82